Kargopol, Russia
Current Conditions -  °F | °C
As of 6:00 PM on Wednesday 26 Nov 2014 (Local Time) from ULPB Reporting Station
NA  
Wind Chill: 28°   Ceiling: NA
Heat Index: 34°   Visibility: 6mi
Dew Point: 34°   Wind: 7mph
Humidity: 100%   Direction: 240°WSW
Pressure: 30.3"   Gusts: NA
Location:  61.5°N, 38.97°E
Report Text: ULPB 261500Z AUTO 24003MPS 210V270 9999 ////// 01/01 Q1026
Loading
Personal Weather Stations






























Interactive Weather Map New forecast layout! Learn more

10-Day Weather Forecast

Advertisements
Track Severe Weather on mobile